Hauptseite
METAR-TAF:

METAR-TAF

Flughäfen :

Flughafen Kuwait

Kuwait-Stadt, Kuwait

Breite: 29-13N, Länge: 047-59E, Höhe: 55 m

Beobachtung

Neuester Wetterbericht von vor 47 Minuten, um 20:00 UTC
Wind 7 kt aus Nord/Nordost
Temperatur 25°C
Luftfeuchtigkeit 34%
Luftdruck 1015 hPa
Sichtweite 10 km oder mehr
keine Wolken unter 1500 m und keine Kumulonimbus oder Gewitterwolken

METAR: OKBK 032000Z 03007KT CAVOK 25/08 Q1015 NOSIG

Zeit: 23:47 (20:47 UTC)

Prognose

Neuester Wetterbericht von vor 4 Stunden und 2 Minuten, um 16:45 UTC
Gültige Prognose vom 03 um 18 UTC bis 04 um 24 UTC
Wind 12 kt aus Ost/Nordost
Sichtweite: 6000 m

TAF: OKBK 031645Z 0318/0424 06012KT 6000 NSC

Wetterbeobachtungen und Prognosen von mehr als 4000 Flughäfen (METAR und TAF Bericht).

Die verfügbaren Stationen werden durch gelbe und rote Markierungen auf der Karte dargestellt.

Führen Sie die Maus auf sie, um den Namen der Station zu sehen.

Darauf klicken, um die Beobachtung von Wetterbeobachtungen und Prognosen zu sehen.

Um die Karte zu ändern : klicken Sie auf den grünen Tasten mit einem schwarzen Kreuz Zum Vergrößern, auf den grünen Button mit einem Gedankenstrich zu verkleinern, oder auf die grünen Pfeile für benachbarte Karten.


METAR-TAF: